Hlavní strana
METAR-TAF:

METAR-TAF

Letiště :

Victoria, Mahé, Seychely

zeměpisná šířka: 04-40S, zeměpisná délka: 055-31E, výška: 3 m

Aktuální stav počasí

Zpráva byla vytvořena před 1 hodinou a 0 minutami, v 21:00 UTC
Západoseverozápadní vítr 8 kt
Teplota 29°C
Vlhkost vzduchu 70%
Tlak 1011 hPa
Viditelnost 10 km a více
Skoro jasno ve výšce 2000 ft, Cumulonimbus.

METAR: FSIA 042100Z 30008KT 9999 FEW020CB 29/23 Q1011 NOSIG

Čas: 02:00 (22:00 UTC)

Předpověď počasí

Zpráva byla vytvořena před 4 hodinami a 59 minutami, v 17:01 UTC
Předpověď platná od 04 v 18 UTC do 05 v 18 UTC
Severozápadní vítr 12 kt
Viditelnost 10 km a více
Skoro jasno ve výšce 2000 ft, Cumulonimbus.
Polojasno ve výšce 2200 ft
Dočasný
od 04 v 20 UTC do 05 v 02 UTC
Viditelnost: 8000 m
Skoro jasno ve výšce 1200 ft
Skoro jasno ve výšce 1600 ft, Cumulonimbus.
Oblačno až skoro zataženo ve výšce 1800 ft
slabé dešťové přeháňky

TAF: FSIA 041701Z 0418/0518 31012KT 9999 FEW020CB SCT022 TEMPO 0420/0502 8000 -SHRA FEW012 FEW016CB BKN018

Stav a předpovědi počasí z více než 4 000 letišť (zprávy METAR a TAF).

Červené a žluté tečky na mapě představují dostupné meteorologické stanice.

Když kurzor umístíte na tečku, zobrazí se název stanice.

Pak kliknutím zobrazíte stav a předpověď počasí.

Chcete-li změnit mapu, kliknutím na zelené tlačítko se znaménkem +mapu přiblížíte, kliknutím na zelené tlačítko se znaménkem – mapu oddálíte a kliknutím na zelené šipky přejdete na sousední mapy.


METAR-TAF: